South Norwalk, Connecticut
Current Conditions -  °F | °C
As of 10:56 PM on Thursday 18 Dec 2014 (Local Time) from KHPN Reporting Station
Clear Clear  
Wind Chill: 27°   Ceiling: Unl
Heat Index: 35°   Visibility: 10mi
Dew Point: 26°   Wind: 12mph
Humidity: 70%   Direction: 300°WNW
Pressure: 29.93"   Gusts: NA
Location:  41.0941°N, 73.4328°W
Report Text: KHPN 190356Z 30010KT 10SM CLR 02/M03 A2993 RMK AO2 SLP143 T00171033
Loading
Personal Weather Stations






























Interactive Weather Map New forecast layout! Learn more

10-Day Weather Forecast

Advertisements
Track Severe Weather on mobile